createdAt,value
2023-04-24T00:10:22.581Z,100284.47
2023-04-24T00:14:51.309Z,100280.20
2023-04-24T00:19:19.970Z,100275.37
2023-04-24T00:23:48.673Z,100261.79
2023-04-24T00:28:19.296Z,100257.15
2023-04-24T00:45:39.053Z,100240.42
2023-04-24T00:50:09.268Z,100231.73
2023-04-24T01:11:59.811Z,100206.49
2023-04-24T01:16:28.638Z,100207.62
2023-04-24T01:21:00.901Z,100206.55
2023-04-24T01:38:09.135Z,100185.81
2023-04-24T01:42:39.586Z,100194.22
2023-04-24T01:46:57.937Z,100191.89
2023-04-24T02:04:23.948Z,100153.40
2023-04-24T02:21:40.033Z,100136.89
2023-04-24T02:43:27.277Z,100132.12
2023-04-24T02:47:57.037Z,100121.94
2023-04-24T03:05:06.369Z,100105.61
2023-04-24T03:09:35.424Z,100102.10
2023-04-24T03:14:04.096Z,100091.94
2023-04-24T03:18:32.759Z,100087.65
2023-04-24T03:40:14.547Z,100074.23
2023-04-24T03:44:43.152Z,100069.20
2023-04-24T03:49:13.190Z,100067.14
2023-04-24T04:07:24.056Z,100054.20
2023-04-24T04:11:53.881Z,100053.00
2023-04-24T04:16:22.607Z,100054.95
2023-04-24T04:20:52.916Z,100058.48
2023-04-24T04:38:16.791Z,100053.13
2023-04-24T04:42:46.038Z,100046.94
2023-04-24T04:47:14.779Z,100045.58
2023-04-24T04:51:44.817Z,100052.55
2023-04-24T05:13:38.438Z,100054.23
2023-04-24T05:18:10.276Z,100056.84
2023-04-24T05:35:30.786Z,100041.17
2023-04-24T05:43:56.844Z,100040.17
2023-04-24T05:48:25.513Z,100037.14
2023-04-24T05:52:55.372Z,100031.42
2023-04-24T06:16:36.386Z,100020.55
2023-04-24T06:21:05.730Z,100013.50
2023-04-24T06:25:36.402Z,100010.05
2023-04-24T06:42:33.496Z,100008.46
2023-04-24T06:47:03.619Z,100002.98
2023-04-24T06:51:34.470Z,100007.52
2023-04-24T07:17:29.746Z,99997.10
2023-04-24T07:21:59.187Z,99998.70
2023-04-24T07:26:18.561Z,100003.31
2023-04-24T07:30:30.855Z,99997.85
2023-04-24T07:35:01.870Z,100000.95
2023-04-24T07:38:51.671Z,100000.45
2023-04-24T08:19:22.439Z,100023.27
2023-04-24T08:23:47.637Z,100024.02
2023-04-24T08:28:07.783Z,100021.08
2023-04-24T08:31:41.306Z,100019.52
2023-04-24T08:36:02.252Z,100012.81
2023-04-24T08:39:06.863Z,100014.32
2023-04-24T08:43:25.322Z,100008.05
2023-04-24T08:54:56.405Z,100002.36
2023-04-24T08:58:37.719Z,100003.83
2023-04-24T09:02:40.824Z,99999.70
2023-04-24T09:38:53.356Z,100002.04
2023-04-24T09:43:02.265Z,100001.35
2023-04-24T09:47:20.303Z,100000.84
2023-04-24T09:51:49.680Z,100004.93
2023-04-24T09:56:21.694Z,100002.60
2023-04-24T10:17:39.960Z,100008.00
2023-04-24T10:21:58.091Z,100001.15
2023-04-24T10:26:33.123Z,100000.11
2023-04-24T10:31:02.322Z,100006.36
2023-04-24T10:34:49.515Z,99999.45
2023-04-24T10:38:29.309Z,99999.92
2023-04-24T10:41:51.914Z,100001.60
2023-04-24T10:45:23.588Z,99999.39
2023-04-24T10:49:29.825Z,100005.91
2023-04-24T10:52:40.219Z,100004.38
2023-04-24T10:56:23.599Z,100009.49
2023-04-24T11:00:09.226Z,100010.65
2023-04-24T11:04:03.149Z,100012.49
2023-04-24T11:08:13.645Z,100011.95
2023-04-24T11:12:15.793Z,100011.60
2023-04-24T11:15:22.817Z,100010.73
2023-04-24T11:19:57.869Z,100008.65
2023-04-24T11:23:36.106Z,100007.15
2023-04-24T11:27:31.212Z,100008.02
2023-04-24T11:32:15.971Z,100008.58
2023-04-24T11:35:43.787Z,100005.64
2023-04-24T11:39:51.054Z,100004.73
2023-04-24T11:43:33.551Z,100002.25
2023-04-24T11:47:43.918Z,99997.54
2023-04-24T11:52:02.778Z,99999.95
2023-04-24T11:56:06.465Z,100003.10
2023-04-24T12:00:19.144Z,100007.20
2023-04-24T12:04:29.480Z,100000.16
2023-04-24T12:13:23.016Z,99996.65
2023-04-24T12:38:41.774Z,99971.39
2023-04-24T12:42:41.728Z,99974.60
2023-04-24T12:47:09.649Z,99978.81
2023-04-24T12:51:31.969Z,99973.45
2023-04-24T12:55:57.853Z,99966.90
2023-04-24T13:00:26.583Z,99964.93
2023-04-24T13:25:28.495Z,99923.92
2023-04-24T13:29:38.522Z,99925.17
2023-04-24T13:32:44.146Z,99925.71
2023-04-24T13:36:34.362Z,99927.74
2023-04-24T13:40:26.341Z,99926.58
2023-04-24T13:44:10.090Z,99922.98
2023-04-24T13:47:42.234Z,99925.80
2023-04-24T14:11:47.915Z,99911.06
2023-04-24T14:15:55.502Z,99910.80
2023-04-24T14:20:09.126Z,99913.98
2023-04-24T14:24:26.907Z,99915.58
2023-04-24T14:36:59.407Z,99921.36
2023-04-24T14:41:28.663Z,99927.91
2023-04-24T14:45:57.623Z,99935.48
2023-04-24T14:54:34.957Z,99956.79
2023-04-24T15:11:37.160Z,99976.98
2023-04-24T15:16:06.967Z,99976.24
2023-04-24T15:33:26.976Z,99977.33
2023-04-24T15:37:55.966Z,99977.65
2023-04-24T15:59:46.620Z,99996.21
2023-04-24T16:04:17.166Z,99999.52
2023-04-24T16:08:47.625Z,100008.98
2023-04-24T16:13:09.646Z,100011.61
2023-04-24T16:30:35.624Z,99996.71
2023-04-24T16:35:04.923Z,99998.73
2023-04-24T16:39:34.043Z,100008.10
2023-04-24T17:02:09.350Z,99990.47
2023-04-24T17:06:40.770Z,100003.71
2023-04-24T17:24:00.444Z,100008.45
2023-04-24T17:28:29.657Z,100009.33
2023-04-24T17:32:59.638Z,100002.98
2023-04-24T17:54:44.087Z,100010.45
2023-04-24T17:59:13.787Z,100013.69
2023-04-24T18:16:34.122Z,100023.06
2023-04-24T18:21:04.386Z,100026.73
2023-04-24T18:29:31.815Z,100032.75
2023-04-24T18:34:00.770Z,100041.98
2023-04-24T18:55:48.436Z,100061.90
2023-04-24T19:00:17.732Z,100062.47
2023-04-24T19:17:38.201Z,100103.55
2023-04-24T19:22:10.745Z,100106.70
2023-04-24T19:39:20.753Z,100123.42
2023-04-24T19:43:49.933Z,100125.98
2023-04-24T20:01:11.513Z,100143.73
2023-04-24T20:05:42.956Z,100147.02
2023-04-24T20:27:30.406Z,100158.31
2023-04-24T20:31:59.994Z,100163.84
2023-04-24T20:49:38.656Z,100168.04
2023-04-24T21:11:27.161Z,100185.58
2023-04-24T21:15:56.867Z,100187.80
2023-04-24T21:20:26.911Z,100196.48
2023-04-24T21:42:03.240Z,100223.86
2023-04-24T21:50:29.670Z,100231.73
2023-04-24T21:54:58.381Z,100237.15
2023-04-24T22:21:06.421Z,100229.64
2023-04-24T22:25:35.097Z,100242.06
2023-04-24T22:42:55.002Z,100241.08
2023-04-24T22:47:24.244Z,100243.88
2023-04-24T23:04:44.654Z,100245.69
2023-04-24T23:09:13.796Z,100243.77
2023-04-24T23:13:42.858Z,100247.38
2023-04-24T23:35:30.024Z,100240.05
2023-04-24T23:43:55.080Z,100238.10
2023-04-24T23:48:24.393Z,100241.15
